Time;durP1;ratioP1;P1;durP2;ratioP2;P2;SDS_P1;SDS_P2;PMS_P1;PMS_P2;Temp;Humidity;BMP_temperature;BMP_pressure;BME280_temperature;BME280_humidity;BME280_pressure;Samples;Min_cycle;Max_cycle;Signal;HPM_P1;HPM_P2
2021/11/03 00:01:16;;;;;;;21.92;17.83;;;7.80;81.50;;;;;;5049460;28;20052;-76
2021/11/03 00:03:44;;;;;;;18.10;16.00;;;7.80;81.70;;;;;;5034009;28;20036;-80
2021/11/03 00:06:09;;;;;;;23.77;17.45;;;7.90;82.00;;;;;;5034022;28;20029;-79
2021/11/03 00:08:36;;;;;;;25.35;17.92;;;7.90;82.20;;;;;;4998406;28;20476;-75
2021/11/03 00:11:04;;;;;;;22.48;18.77;;;7.90;82.30;;;;;;5031103;28;20532;-76
2021/11/03 00:13:30;;;;;;;21.05;17.80;;;7.90;82.30;;;;;;5034825;28;20549;-76
2021/11/03 00:15:57;;;;;;;23.92;18.38;;;7.90;82.40;;;;;;5035282;28;20036;-75
2021/11/03 00:18:22;;;;;;;24.00;18.33;;;7.90;82.50;;;;;;5035559;28;20025;-75
2021/11/03 00:20:48;;;;;;;26.30;21.05;;;8.00;82.70;;;;;;5040485;28;20376;-76
2021/11/03 00:23:14;;;;;;;23.80;19.67;;;8.00;83.00;;;;;;5036578;28;20036;-75
2021/11/03 00:25:41;;;;;;;48.28;23.50;;;8.00;83.40;;;;;;5033181;28;20029;-75
2021/11/03 00:28:09;;;;;;;25.38;20.33;;;8.00;83.90;;;;;;5052373;28;20497;-75
2021/11/03 00:30:35;;;;;;;46.72;22.38;;;8.00;84.30;;;;;;5034149;28;20033;-76
2021/11/03 00:33:01;;;;;;;31.15;21.95;;;8.10;84.60;;;;;;5054324;28;20031;-76
2021/11/03 00:35:30;;;;;;;26.67;20.48;;;8.10;84.80;;;;;;5054550;28;20049;-76
2021/11/03 00:37:56;;;;;;;31.27;21.15;;;8.10;85.00;;;;;;5038389;28;20023;-76
2021/11/03 00:40:22;;;;;;;41.25;23.10;;;8.20;85.10;;;;;;5042682;28;20472;-76
2021/11/03 00:42:47;;;;;;;36.88;22.23;;;8.20;85.10;;;;;;5015774;28;20041;-76
2021/11/03 00:45:13;;;;;;;32.45;21.20;;;8.20;85.30;;;;;;5010431;28;20060;-76
2021/11/03 00:47:39;;;;;;;31.67;21.67;;;8.20;85.40;;;;;;5047789;28;20481;-76
2021/11/03 00:50:05;;;;;;;59.88;23.15;;;8.30;85.40;;;;;;5040094;28;20090;-76
2021/11/03 00:52:32;;;;;;;45.95;23.13;;;8.30;85.40;;;;;;5038085;28;20114;-76
2021/11/03 00:54:57;;;;;;;31.42;22.13;;;8.30;85.50;;;;;;5041215;28;20060;-76
2021/11/03 00:57:23;;;;;;;217.70;24.77;;;8.30;85.50;;;;;;5030664;28;20017;-76
2021/11/03 00:59:49;;;;;;;197.13;26.42;;;8.30;85.70;;;;;;5029151;28;20112;-76
2021/11/03 01:02:15;;;;;;;57.47;23.77;;;8.30;85.80;;;;;;5035320;28;20029;-75
2021/11/03 01:04:40;;;;;;;62.92;23.33;;;8.30;85.90;;;;;;5036521;28;20139;-75
2021/11/03 01:07:09;;;;;;;40.38;23.40;;;8.30;86.10;;;;;;5028281;28;20036;-79
2021/11/03 01:09:35;;;;;;;112.43;23.63;;;8.30;86.30;;;;;;5039034;28;20148;-80
2021/11/03 01:12:01;;;;;;;128.85;25.20;;;8.30;86.20;;;;;;5028531;28;20113;-80
2021/11/03 01:14:26;;;;;;;247.85;26.08;;;8.30;86.20;;;;;;5040552;28;20590;-76
2021/11/03 01:16:52;;;;;;;105.57;25.25;;;8.30;86.20;;;;;;5031710;28;20435;-76
2021/11/03 01:19:18;;;;;;;114.85;24.27;;;8.20;86.30;;;;;;5034359;28;20045;-76
2021/11/03 01:21:44;;;;;;;143.20;25.38;;;8.20;86.40;;;;;;5045722;28;20365;-79
2021/11/03 01:24:10;;;;;;;137.45;25.42;;;8.20;86.40;;;;;;5044736;28;20040;-75
2021/11/03 01:26:36;;;;;;;108.25;23.20;;;8.20;86.40;;;;;;5034167;28;20030;-76
2021/11/03 01:29:03;;;;;;;104.70;24.48;;;8.20;86.40;;;;;;5034952;28;20041;-76
2021/11/03 01:31:29;;;;;;;140.05;25.40;;;8.20;86.50;;;;;;5028348;28;20033;-80
2021/11/03 01:33:56;;;;;;;139.00;24.73;;;8.20;86.40;;;;;;5029084;28;20049;-79
2021/11/03 01:36:23;;;;;;;90.97;24.67;;;8.20;86.50;;;;;;5012092;28;20056;-80
2021/11/03 01:38:49;;;;;;;100.82;24.02;;;8.20;86.50;;;;;;5029002;28;20384;-79
2021/11/03 01:41:15;;;;;;;112.07;23.98;;;8.20;86.60;;;;;;5029276;28;20492;-80
2021/11/03 01:43:47;;;;;;;111.97;23.17;;;8.20;86.60;;;;;;5029922;28;20493;-80
2021/11/03 01:46:24;;;;;;;81.93;21.97;;;8.10;86.50;;;;;;5030306;28;20524;-76
2021/11/03 01:48:58;;;;;;;93.20;23.10;;;8.10;86.40;;;;;;5023356;28;20026;-76
2021/11/03 01:51:42;;;;;;;104.38;23.73;;;8.20;86.30;;;;;;5024060;28;20025;-80
2021/11/03 01:54:12;;;;;;;91.10;21.85;;;8.20;86.20;;;;;;5042258;28;20481;-80
2021/11/03 01:56:39;;;;;;;78.20;22.40;;;8.10;86.10;;;;;;5026196;28;20029;-80
2021/11/03 01:59:23;;;;;;;70.28;21.33;;;8.10;86.00;;;;;;5017390;28;20104;-80
2021/11/03 02:01:49;;;;;;;86.80;22.50;;;8.20;86.00;;;;;;5029352;28;20014;-80
2021/11/03 02:04:16;;;;;;;66.80;21.40;;;8.20;85.90;;;;;;5030675;28;20128;-80
2021/11/03 02:06:42;;;;;;;81.20;20.98;;;8.20;86.00;;;;;;5029678;28;20049;-80
2021/11/03 02:09:08;;;;;;;165.52;22.73;;;8.10;85.80;;;;;;5030640;28;20083;-80
2021/11/03 02:11:35;;;;;;;131.10;22.33;;;8.10;85.70;;;;;;5029608;28;20492;-80
2021/11/03 02:14:03;;;;;;;138.32;23.30;;;8.10;85.70;;;;;;5030305;28;20447;-80
2021/11/03 02:16:30;;;;;;;65.55;20.73;;;8.10;85.80;;;;;;5030352;28;20049;-76
2021/11/03 02:18:56;;;;;;;74.00;21.75;;;8.10;85.80;;;;;;5012469;28;20037;-76
2021/11/03 02:21:33;;;;;;;116.45;21.60;;;8.10;85.80;;;;;;5008465;28;20022;-76
2021/11/03 02:24:31;;;;;;;88.93;21.25;;;8.10;85.70;;;;;;5025573;28;20440;-79
2021/11/03 02:26:59;;;;;;;59.17;20.30;;;8.00;85.50;;;;;;5017437;28;20076;-80
2021/11/03 02:29:25;;;;;;;82.22;20.85;;;8.00;85.50;;;;;;5026322;28;20539;-75
2021/11/03 02:31:54;;;;;;;113.75;21.13;;;8.00;85.50;;;;;;5030799;28;20077;-79
2021/11/03 02:34:28;;;;;;;102.45;22.05;;;8.00;85.40;;;;;;5040584;28;20053;-75
2021/11/03 02:36:53;;;;;;;127.68;21.45;;;8.00;85.30;;;;;;5038099;28;20025;-76
2021/11/03 02:39:28;;;;;;;94.82;20.52;;;8.00;85.30;;;;;;5024996;28;20029;-80
2021/11/03 02:41:54;;;;;;;94.78;21.50;;;8.00;85.40;;;;;;5020397;28;20147;-76
2021/11/03 02:44:23;;;;;;;120.50;20.42;;;8.00;85.50;;;;;;5029673;28;20113;-76
2021/11/03 02:46:51;;;;;;;125.93;21.75;;;7.90;85.50;;;;;;5029347;28;20033;-76
2021/11/03 02:49:17;;;;;;;58.55;20.60;;;7.90;86.10;;;;;;5029057;28;20030;-79
2021/11/03 02:51:44;;;;;;;82.03;20.15;;;7.90;85.50;;;;;;5029392;28;20067;-75
2021/11/03 02:54:17;;;;;;;90.10;20.38;;;7.90;85.60;;;;;;5028008;28;20025;-79
2021/11/03 02:56:46;;;;;;;92.35;20.40;;;7.90;85.60;;;;;;5019841;28;20484;-76
2021/11/03 02:59:13;;;;;;;73.28;19.73;;;7.90;85.60;;;;;;5029668;28;20028;-80
2021/11/03 03:01:42;;;;;;;116.35;21.05;;;7.90;85.60;;;;;;5026763;28;20029;-80
2021/11/03 03:04:20;;;;;;;101.10;20.25;;;7.90;85.60;;;;;;5029242;28;20042;-79
2021/11/03 03:06:46;;;;;;;120.25;20.00;;;7.90;85.60;;;;;;5029478;28;20036;-80
2021/11/03 03:09:13;;;;;;;155.07;20.30;;;7.90;85.50;;;;;;5029771;28;20045;-76
2021/11/03 03:11:41;;;;;;;95.07;19.10;;;7.90;85.50;;;;;;5018036;28;20039;-76
2021/11/03 03:14:09;;;;;;;94.93;18.13;;;7.90;85.40;;;;;;5029442;28;20034;-76
2021/11/03 03:16:35;;;;;;;76.97;17.83;;;7.90;85.40;;;;;;5028124;28;20034;-76
2021/11/03 03:19:01;;;;;;;72.85;18.95;;;7.90;85.40;;;;;;5027044;28;20056;-76
2021/11/03 03:21:28;;;;;;;89.50;18.52;;;7.80;85.30;;;;;;5026580;28;20030;-76
2021/11/03 03:23:54;;;;;;;80.22;19.98;;;7.80;85.40;;;;;;5028505;28;20021;-79
2021/11/03 03:26:21;;;;;;;58.20;18.58;;;7.80;85.40;;;;;;5029096;28;20028;-80
2021/11/03 03:28:48;;;;;;;84.40;18.38;;;7.80;85.40;;;;;;5028604;28;20063;-76
2021/11/03 03:31:14;;;;;;;90.93;19.70;;;7.80;85.40;;;;;;5029180;28;20037;-76
2021/11/03 03:33:42;;;;;;;66.80;17.35;;;7.80;85.40;;;;;;5029055;28;20108;-80
2021/11/03 03:36:09;;;;;;;128.45;19.95;;;7.80;85.50;;;;;;5028880;28;20057;-76
2021/11/03 03:38:35;;;;;;;106.60;18.27;;;7.80;85.50;;;;;;5030816;28;20037;-80
2021/11/03 03:41:01;;;;;;;145.18;18.63;;;7.80;85.70;;;;;;5050223;28;20030;-76
2021/11/03 03:43:27;;;;;;;63.17;16.73;;;7.80;85.70;;;;;;5005152;28;20091;-75
2021/11/03 03:45:52;;;;;;;118.72;17.42;;;7.80;85.70;;;;;;5020578;28;20034;-75
2021/11/03 03:48:18;;;;;;;165.98;18.20;;;7.70;85.90;;;;;;5012113;28;20032;-80
2021/11/03 03:50:44;;;;;;;176.30;18.60;;;7.70;85.90;;;;;;5019853;28;20112;-79
2021/11/03 03:53:10;;;;;;;133.40;16.80;;;7.70;85.90;;;;;;5022303;28;20121;-79
2021/11/03 03:55:38;;;;;;;172.07;18.38;;;7.70;85.80;;;;;;5027919;28;20056;-79
2021/11/03 03:58:06;;;;;;;85.00;16.50;;;7.70;85.80;;;;;;5028150;28;20400;-75
2021/11/03 04:00:32;;;;;;;133.82;16.58;;;7.70;85.70;;;;;;5028716;28;20026;-75
2021/11/03 04:02:58;;;;;;;122.50;16.27;;;7.70;85.60;;;;;;5011107;28;20052;-75
2021/11/03 04:05:28;;;;;;;82.10;16.75;;;7.60;85.40;;;;;;5020102;28;20543;-75
2021/11/03 04:07:54;;;;;;;66.30;16.08;;;7.60;85.40;;;;;;5033151;28;20426;-75
2021/11/03 04:10:19;;;;;;;79.88;15.48;;;7.50;85.50;;;;;;5027728;28;20029;-75
2021/11/03 04:12:46;;;;;;;119.80;17.80;;;7.50;85.80;;;;;;5020280;28;20396;-75
2021/11/03 04:15:13;;;;;;;80.93;15.10;;;7.50;85.70;;;;;;5032728;28;20052;-75
2021/11/03 04:17:39;;;;;;;90.68;15.00;;;7.50;85.70;;;;;;5011932;28;20105;-74
2021/11/03 04:20:06;;;;;;;53.95;15.52;;;7.50;85.70;;;;;;5019802;28;20117;-75
2021/11/03 04:22:34;;;;;;;66.38;16.25;;;7.50;85.60;;;;;;5015183;28;20032;-75
2021/11/03 04:25:00;;;;;;;80.07;17.02;;;7.40;85.50;;;;;;5032118;28;20041;-75
2021/11/03 04:27:25;;;;;;;60.72;16.50;;;7.50;85.40;;;;;;5032726;28;20025;-76
2021/11/03 04:29:51;;;;;;;62.50;16.77;;;7.50;85.30;;;;;;5011249;28;20018;-76
2021/11/03 04:32:17;;;;;;;64.68;15.65;;;7.50;85.20;;;;;;5030421;28;20065;-76
2021/11/03 04:34:43;;;;;;;71.82;15.90;;;7.50;85.20;;;;;;5031982;28;20068;-80
2021/11/03 04:37:10;;;;;;;77.35;16.38;;;7.50;85.10;;;;;;5031110;28;20456;-80
2021/11/03 04:39:37;;;;;;;48.25;16.13;;;7.50;85.00;;;;;;5032278;28;20100;-80
2021/11/03 04:42:03;;;;;;;37.83;16.05;;;7.50;84.90;;;;;;5031981;28;20083;-80
2021/11/03 04:44:29;;;;;;;34.72;15.07;;;7.50;84.90;;;;;;5041091;28;20036;-79
2021/11/03 04:46:54;;;;;;;55.78;16.38;;;7.50;85.00;;;;;;5032128;28;20116;-79
2021/11/03 04:49:20;;;;;;;79.38;16.23;;;7.50;84.90;;;;;;5027678;28;20476;-79
2021/11/03 04:51:46;;;;;;;88.07;15.75;;;7.50;84.80;;;;;;5023271;28;20022;-80
2021/11/03 04:54:12;;;;;;;87.30;15.95;;;7.40;84.60;;;;;;5028809;28;20064;-79
2021/11/03 04:56:38;;;;;;;158.20;17.58;;;7.40;84.60;;;;;;5016776;28;20094;-79
2021/11/03 04:59:04;;;;;;;79.53;15.60;;;7.40;84.60;;;;;;5049104;28;20029;-80
2021/11/03 05:01:30;;;;;;;198.27;17.02;;;7.40;84.50;;;;;;5033190;28;20032;-80
2021/11/03 05:03:57;;;;;;;163.73;16.05;;;7.40;84.60;;;;;;5039251;28;20029;-80
2021/11/03 05:06:25;;;;;;;82.10;16.05;;;7.30;84.50;;;;;;5035808;28;20053;-75
2021/11/03 05:08:53;;;;;;;51.22;15.60;;;7.30;84.70;;;;;;5024759;28;20041;-76
2021/11/03 05:11:20;;;;;;;72.10;15.98;;;7.30;84.80;;;;;;5030688;28;20069;-76
2021/11/03 05:13:48;;;;;;;53.03;16.00;;;7.30;85.10;;;;;;5029685;28;20120;-76
2021/11/03 05:16:17;;;;;;;127.68;16.02;;;7.40;85.20;;;;;;5030543;28;20132;-75
2021/11/03 05:18:43;;;;;;;46.40;14.82;;;7.30;85.10;;;;;;5031364;28;20104;-76
2021/11/03 05:21:09;;;;;;;112.57;16.63;;;7.30;85.20;;;;;;5030885;28;20112;-76
2021/11/03 05:23:35;;;;;;;95.40;16.13;;;7.30;85.10;;;;;;5030364;28;20614;-76
2021/11/03 05:26:00;;;;;;;84.95;16.08;;;7.30;85.10;;;;;;5026461;28;20034;-76
2021/11/03 05:28:27;;;;;;;103.10;16.50;;;7.30;85.10;;;;;;5034040;28;20032;-75
2021/11/03 05:30:55;;;;;;;57.67;15.05;;;7.30;85.40;;;;;;4998501;28;20452;-76
2021/11/03 05:33:21;;;;;;;59.10;14.52;;;7.30;85.40;;;;;;5030713;28;20373;-79
2021/11/03 05:35:47;;;;;;;101.80;16.02;;;7.30;85.50;;;;;;5038709;28;20072;-76
2021/11/03 05:38:12;;;;;;;76.53;15.93;;;7.30;85.50;;;;;;5021228;28;20033;-79
2021/11/03 05:40:39;;;;;;;126.28;17.33;;;7.30;85.40;;;;;;5042912;28;20033;-79
2021/11/03 05:43:05;;;;;;;151.70;16.13;;;7.30;85.40;;;;;;5036941;28;20518;-79
2021/11/03 05:45:31;;;;;;;58.45;16.30;;;7.30;85.20;;;;;;5039452;28;20017;-79
2021/11/03 05:47:57;;;;;;;84.72;17.63;;;7.30;85.30;;;;;;5056338;28;20036;-79
2021/11/03 05:50:27;;;;;;;120.72;17.30;;;7.30;85.40;;;;;;5038624;28;20037;-79
2021/11/03 05:52:53;;;;;;;61.40;17.00;;;7.30;85.50;;;;;;5056027;28;20025;-79
2021/11/03 05:55:19;;;;;;;42.63;15.77;;;7.30;85.50;;;;;;5035015;28;20022;-79
2021/11/03 05:57:45;;;;;;;179.07;17.42;;;7.30;85.40;;;;;;5030091;28;20039;-79
2021/11/03 06:00:19;;;;;;;82.35;17.75;;;7.30;85.20;;;;;;5031444;28;20060;-78
2021/11/03 06:02:44;;;;;;;80.55;16.45;;;7.30;85.10;;;;;;5042866;28;20036;-79
2021/11/03 06:05:14;;;;;;;66.18;15.07;;;7.30;85.10;;;;;;5024019;28;20029;-79
2021/11/03 06:07:40;;;;;;;122.78;16.30;;;7.30;85.20;;;;;;5037913;28;20132;-79
2021/11/03 06:10:08;;;;;;;92.22;16.17;;;7.30;85.10;;;;;;5041169;28;20032;-76
2021/11/03 06:12:34;;;;;;;123.30;16.30;;;7.30;85.10;;;;;;5038640;28;20037;-75
2021/11/03 06:15:00;;;;;;;143.60;17.05;;;7.30;85.10;;;;;;5048967;28;20025;-79
2021/11/03 06:17:26;;;;;;;138.32;15.80;;;7.30;85.60;;;;;;5039332;28;20025;-79
2021/11/03 06:19:51;;;;;;;98.25;16.63;;;7.20;84.90;;;;;;5036826;28;20166;-80
2021/11/03 06:22:17;;;;;;;95.22;14.52;;;7.20;84.70;;;;;;5039581;28;20499;-80
2021/11/03 06:24:44;;;;;;;86.65;15.40;;;7.20;84.70;;;;;;5054579;28;20029;-77
2021/11/03 06:27:09;;;;;;;84.55;15.55;;;7.20;84.70;;;;;;5031477;28;20092;-79
2021/11/03 06:29:35;;;;;;;65.82;15.43;;;7.20;84.80;;;;;;5042489;28;20041;-79
2021/11/03 06:32:02;;;;;;;71.20;15.68;;;7.20;84.90;;;;;;5042866;28;20112;-79
2021/11/03 06:34:28;;;;;;;117.90;15.75;;;7.20;85.00;;;;;;5053134;28;20087;-78
2021/11/03 06:36:54;;;;;;;94.45;16.00;;;7.20;85.10;;;;;;5032664;28;20056;-76
2021/11/03 06:39:20;;;;;;;64.32;16.30;;;7.20;85.10;;;;;;5040644;28;20057;-79
2021/11/03 06:41:45;;;;;;;73.13;16.10;;;7.20;85.20;;;;;;5031687;28;20029;-79
2021/11/03 06:44:11;;;;;;;72.80;16.30;;;7.20;85.20;;;;;;5046251;28;20059;-75
2021/11/03 06:46:37;;;;;;;69.88;16.45;;;7.20;85.20;;;;;;5042498;28;20072;-78
2021/11/03 06:49:04;;;;;;;76.40;16.90;;;7.20;85.30;;;;;;5050825;28;20037;-76
2021/11/03 06:51:30;;;;;;;117.80;17.33;;;7.20;85.40;;;;;;5040771;28;20033;-76
2021/11/03 06:53:56;;;;;;;70.55;16.67;;;7.20;85.30;;;;;;5029760;28;20028;-76
2021/11/03 06:56:21;;;;;;;86.25;16.95;;;7.20;85.30;;;;;;5034922;28;20499;-76
2021/11/03 06:58:47;;;;;;;64.15;17.50;;;7.20;85.20;;;;;;5028088;28;20480;-75
2021/11/03 07:01:13;;;;;;;56.55;16.77;;;7.20;85.20;;;;;;5015308;28;20061;-76
2021/11/03 07:03:40;;;;;;;78.93;17.23;;;7.20;85.20;;;;;;5024995;28;20034;-77
2021/11/03 07:06:06;;;;;;;57.60;17.65;;;7.20;85.10;;;;;;5028683;28;20126;-77
2021/11/03 07:08:32;;;;;;;121.03;17.35;;;7.20;85.10;;;;;;5029658;28;20045;-77
2021/11/03 07:10:59;;;;;;;61.60;16.60;;;7.20;85.00;;;;;;5029126;28;20033;-77
2021/11/03 07:13:26;;;;;;;92.57;17.80;;;7.20;85.00;;;;;;5029419;28;20045;-77
2021/11/03 07:15:52;;;;;;;97.43;17.33;;;7.20;85.10;;;;;;5029827;28;20026;-77
2021/11/03 07:18:19;;;;;;;113.53;18.25;;;7.20;85.10;;;;;;5030582;28;20073;-77
2021/11/03 07:20:45;;;;;;;52.65;17.42;;;7.30;85.10;;;;;;5040208;28;20442;-77
2021/11/03 07:23:14;;;;;;;90.30;17.25;;;7.30;85.00;;;;;;5029793;28;20109;-76
2021/11/03 07:25:41;;;;;;;57.17;16.50;;;7.30;85.10;;;;;;5030137;28;20037;-77
2021/11/03 07:28:06;;;;;;;27.90;17.85;;;7.30;85.00;;;;;;5029670;28;20435;-76
2021/11/03 07:30:35;;;;;;;81.90;18.30;;;7.30;85.00;;;;;;5022629;28;20030;-76
2021/11/03 07:33:01;;;;;;;60.08;22.92;;;7.30;84.90;;;;;;5014491;28;20033;-77
2021/11/03 07:35:28;;;;;;;47.97;22.10;;;7.30;85.00;;;;;;5029112;28;20041;-77
2021/11/03 07:37:55;;;;;;;65.22;22.45;;;7.30;85.10;;;;;;5027075;28;20937;-76
2021/11/03 07:40:24;;;;;;;83.25;22.30;;;7.30;85.20;;;;;;5030120;28;20028;-77
2021/11/03 07:42:51;;;;;;;56.67;19.33;;;7.30;85.20;;;;;;5035242;28;20057;-77
2021/11/03 07:45:17;;;;;;;31.02;18.33;;;7.30;85.20;;;;;;5024673;28;20033;-76
2021/11/03 07:47:44;;;;;;;63.17;17.67;;;7.30;85.30;;;;;;5039647;28;20044;-77
2021/11/03 07:50:16;;;;;;;51.75;18.30;;;7.40;85.40;;;;;;5028027;28;20033;-77
2021/11/03 07:52:42;;;;;;;51.35;16.60;;;7.40;85.40;;;;;;5029695;28;20029;-77
2021/11/03 07:55:07;;;;;;;50.67;17.27;;;7.40;85.40;;;;;;5035182;28;20399;-77
2021/11/03 07:57:33;;;;;;;81.22;17.63;;;7.40;85.50;;;;;;5027972;28;20385;-77
2021/11/03 07:59:59;;;;;;;45.35;16.30;;;7.40;85.40;;;;;;5019191;28;20029;-77
2021/11/03 08:02:24;;;;;;;53.53;17.08;;;7.40;85.40;;;;;;5040001;28;20041;-77
2021/11/03 08:04:50;;;;;;;44.25;18.13;;;7.40;85.50;;;;;;5038249;28;20109;-77
2021/11/03 08:07:16;;;;;;;54.50;16.73;;;7.40;85.50;;;;;;5032785;28;20034;-77
2021/11/03 08:09:46;;;;;;;79.82;16.73;;;7.50;85.50;;;;;;5036936;28;20036;-77
2021/11/03 08:12:14;;;;;;;46.30;17.58;;;7.50;85.50;;;;;;5049569;28;20479;-76
2021/11/03 08:14:40;;;;;;;41.92;17.55;;;7.50;85.40;;;;;;5021693;28;20103;-76
2021/11/03 08:17:11;;;;;;;39.90;16.90;;;7.50;85.50;;;;;;5033223;28;20025;-76
2021/11/03 08:19:46;;;;;;;22.05;16.45;;;7.50;85.50;;;;;;5049619;28;20465;-76
2021/11/03 08:22:13;;;;;;;24.98;16.10;;;7.60;85.50;;;;;;5029869;28;20033;-76
2021/11/03 08:24:39;;;;;;;17.60;15.48;;;7.60;85.50;;;;;;5027416;28;20099;-76
2021/11/03 08:27:06;;;;;;;20.45;16.70;;;7.60;85.40;;;;;;5032238;28;20033;-76
2021/11/03 08:29:32;;;;;;;22.23;15.75;;;7.60;85.50;;;;;;5045030;28;20030;-77
2021/11/03 08:31:59;;;;;;;18.77;16.75;;;7.70;85.60;;;;;;5033176;28;20042;-77
2021/11/03 08:34:30;;;;;;;19.23;16.75;;;7.70;85.60;;;;;;5049017;28;20025;-76
2021/11/03 08:37:01;;;;;;;18.55;15.77;;;7.70;85.70;;;;;;5027219;28;20092;-76
2021/11/03 08:39:27;;;;;;;17.33;14.30;;;7.80;85.90;;;;;;5044575;28;20017;-77
2021/11/03 08:41:53;;;;;;;17.48;15.50;;;7.80;85.80;;;;;;5013914;28;20610;-77
2021/11/03 08:44:19;;;;;;;19.33;15.98;;;7.80;85.80;;;;;;5031537;28;20033;-77
2021/11/03 08:46:45;;;;;;;17.67;15.68;;;7.90;86.00;;;;;;5010233;28;20033;-81
2021/11/03 08:49:10;;;;;;;18.17;15.48;;;7.90;86.00;;;;;;5026350;28;20030;-81
2021/11/03 08:51:36;;;;;;;20.20;17.17;;;8.00;86.10;;;;;;5024850;28;20859;-81
2021/11/03 08:54:07;;;;;;;18.77;16.60;;;8.00;86.10;;;;;;4994816;28;20527;-80
2021/11/03 08:56:35;;;;;;;20.85;16.77;;;8.00;86.10;;;;;;5028567;28;20036;-81
2021/11/03 08:59:03;;;;;;;20.45;16.75;;;8.10;86.20;;;;;;5034153;28;20108;-81
2021/11/03 09:01:30;;;;;;;21.58;17.27;;;8.10;86.70;;;;;;5032422;28;20117;-81
2021/11/03 09:03:56;;;;;;;19.23;17.00;;;8.10;86.20;;;;;;5032231;28;20029;-80
2021/11/03 09:06:22;;;;;;;19.33;16.95;;;8.10;86.20;;;;;;5032250;28;20022;-80
2021/11/03 09:08:50;;;;;;;21.40;18.20;;;8.10;86.20;;;;;;5031767;28;20041;-81
2021/11/03 09:11:17;;;;;;;20.85;18.15;;;8.10;86.00;;;;;;5020159;28;20547;-81
2021/11/03 09:13:43;;;;;;;20.55;17.13;;;8.10;86.00;;;;;;5032490;28;20033;-81
2021/11/03 09:16:09;;;;;;;22.67;17.67;;;8.10;86.00;;;;;;5027473;28;20076;-80
2021/11/03 09:18:36;;;;;;;19.73;17.63;;;8.10;86.70;;;;;;5043130;28;20060;-81
2021/11/03 09:21:04;;;;;;;19.77;17.67;;;8.10;86.20;;;;;;5023470;28;20038;-81
2021/11/03 09:23:30;;;;;;;20.90;18.65;;;8.20;86.30;;;;;;5021414;28;20032;-81
2021/11/03 09:25:56;;;;;;;21.27;18.65;;;8.20;86.40;;;;;;5024761;28;20087;-81
2021/11/03 09:28:25;;;;;;;22.42;18.45;;;8.20;86.40;;;;;;5053018;28;20053;-80
2021/11/03 09:30:56;;;;;;;22.70;19.05;;;8.30;86.60;;;;;;5041138;28;20033;-80
2021/11/03 09:33:22;;;;;;;23.60;20.65;;;8.30;86.70;;;;;;5045637;28;20044;-82
2021/11/03 09:35:51;;;;;;;23.85;21.35;;;8.40;86.90;;;;;;5030521;28;20115;-82
2021/11/03 09:38:20;;;;;;;25.42;20.55;;;8.40;86.90;;;;;;5035254;28;20029;-82
2021/11/03 09:40:49;;;;;;;22.88;20.40;;;8.40;86.90;;;;;;5038916;28;20191;-80
2021/11/03 09:43:41;;;;;;;22.45;19.08;;;8.50;87.00;;;;;;5035251;28;20029;-81
2021/11/03 09:46:36;;;;;;;23.63;20.15;;;8.50;87.60;;;;;;5036457;28;20496;-81
2021/11/03 09:49:21;;;;;;;22.92;20.10;;;8.50;87.10;;;;;;5031610;28;20030;-81
2021/11/03 09:51:56;;;;;;;22.90;19.75;;;8.60;87.10;;;;;;5028100;28;20076;-81
2021/11/03 09:54:26;;;;;;;26.88;20.90;;;8.60;87.20;;;;;;5040232;28;20440;-81
2021/11/03 09:57:07;;;;;;;23.92;19.98;;;8.60;87.30;;;;;;5019236;28;20057;-81
2021/11/03 09:59:54;;;;;;;23.92;19.58;;;8.60;87.40;;;;;;5028487;28;20036;-80
2021/11/03 10:02:32;;;;;;;21.25;18.98;;;8.70;87.50;;;;;;5025142;28;20400;-80
2021/11/03 10:05:26;;;;;;;23.00;20.08;;;8.70;87.60;;;;;;5033322;28;20041;-76
2021/11/03 10:08:05;;;;;;;23.90;20.27;;;8.70;87.80;;;;;;5027136;28;20538;-77
2021/11/03 10:10:33;;;;;;;24.58;20.63;;;8.80;87.80;;;;;;5032888;28;20103;-76
2021/11/03 10:13:01;;;;;;;23.30;19.98;;;8.80;87.90;;;;;;5032097;28;20038;-77
2021/11/03 10:15:29;;;;;;;22.98;20.58;;;8.80;87.90;;;;;;5039199;28;20028;-77
2021/11/03 10:18:27;;;;;;;24.30;20.40;;;8.80;87.90;;;;;;5027932;28;20499;-77
2021/11/03 10:21:04;;;;;;;24.48;19.50;;;8.90;87.90;;;;;;5028506;28;20108;-81
2021/11/03 10:23:34;;;;;;;23.35;19.35;;;9.00;88.00;;;;;;5033030;28;20032;-81
2021/11/03 10:26:10;;;;;;;24.35;19.80;;;9.00;88.10;;;;;;5033343;28;20032;-81
2021/11/03 10:28:40;;;;;;;25.30;20.15;;;9.10;88.20;;;;;;5036390;28;20040;-81
2021/11/03 10:31:30;;;;;;;27.42;20.02;;;9.10;88.10;;;;;;5035767;28;20391;-81
2021/11/03 10:34:00;;;;;;;27.67;19.83;;;9.20;88.20;;;;;;5024097;28;20026;-81
2021/11/03 10:36:36;;;;;;;24.20;19.02;;;9.20;88.20;;;;;;5023355;28;20552;-82
2021/11/03 10:39:12;;;;;;;25.25;19.70;;;9.30;88.20;;;;;;5021682;28;20029;-82
2021/11/03 10:41:38;;;;;;;25.45;19.30;;;9.30;87.90;;;;;;5028082;28;20098;-82
2021/11/03 10:44:26;;;;;;;27.27;20.13;;;9.40;87.80;;;;;;5029307;28;20106;-82
2021/11/03 10:47:14;;;;;;;31.15;20.55;;;9.40;87.90;;;;;;5028615;28;20032;-82
2021/11/03 10:49:55;;;;;;;32.58;20.75;;;9.40;88.00;;;;;;5022412;28;20523;-82
2021/11/03 10:52:38;;;;;;;29.00;20.77;;;9.50;88.20;;;;;;5024230;28;20121;-82
2021/11/03 10:55:37;;;;;;;30.10;21.15;;;9.60;88.20;;;;;;5024226;28;20041;-82
2021/11/03 10:58:12;;;;;;;27.55;20.50;;;9.60;88.30;;;;;;5027852;28;20550;-81
2021/11/03 11:00:40;;;;;;;26.95;20.10;;;9.60;88.30;;;;;;5027113;28;20480;-82
2021/11/03 11:03:15;;;;;;;26.58;20.45;;;9.60;88.30;;;;;;5025367;28;20033;-82
2021/11/03 11:05:48;;;;;;;26.75;21.55;;;9.70;88.40;;;;;;5027322;28;20029;-83
2021/11/03 11:08:32;;;;;;;27.08;21.27;;;9.70;88.50;;;;;;5024327;28;20105;-83
2021/11/03 11:11:07;;;;;;;27.40;21.63;;;9.70;88.60;;;;;;5025217;28;20034;-82
2021/11/03 11:13:50;;;;;;;27.88;21.40;;;9.80;88.60;;;;;;5028870;28;20091;-82
2021/11/03 11:16:26;;;;;;;28.67;22.92;;;9.80;88.70;;;;;;5025717;28;20435;-77
2021/11/03 11:19:21;;;;;;;28.05;22.85;;;9.90;88.90;;;;;;5025192;28;20025;-77
2021/11/03 11:21:50;;;;;;;32.35;23.83;;;9.90;88.90;;;;;;5027216;28;20068;-76
2021/11/03 11:24:30;;;;;;;30.98;24.02;;;9.90;88.70;;;;;;5030319;28;20546;-82
2021/11/03 11:27:12;;;;;;;27.05;21.92;;;9.90;88.50;;;;;;5027828;28;20032;-81
2021/11/03 11:29:47;;;;;;;27.03;22.47;;;10.00;88.50;;;;;;5028121;28;20093;-82
2021/11/03 11:32:34;;;;;;;28.40;24.02;;;10.00;88.50;;;;;;5026881;28;20918;-82
2021/11/03 11:35:14;;;;;;;33.70;25.73;;;10.00;88.40;;;;;;5020491;28;20505;-81
2021/11/03 11:38:11;;;;;;;28.83;23.08;;;10.00;88.10;;;;;;5009767;28;20397;-82
2021/11/03 11:41:00;;;;;;;31.45;25.00;;;9.90;87.80;;;;;;5025378;28;20057;-82
2021/11/03 11:43:38;;;;;;;29.98;24.77;;;9.80;87.80;;;;;;5027421;28;20533;-78
2021/11/03 11:46:15;;;;;;;31.13;24.45;;;9.80;88.00;;;;;;5025994;28;20064;-78
2021/11/03 11:48:44;;;;;;;29.15;23.50;;;9.80;88.10;;;;;;5015070;28;20025;-77
2021/11/03 11:51:21;;;;;;;33.67;24.35;;;9.80;88.10;;;;;;5025371;28;20022;-81
2021/11/03 11:53:47;;;;;;;34.97;24.65;;;9.80;88.10;;;;;;5026920;28;20025;-81
2021/11/03 11:56:22;;;;;;;42.83;24.55;;;9.80;88.00;;;;;;5028324;28;20071;-81
2021/11/03 11:58:54;;;;;;;28.75;23.25;;;9.90;87.90;;;;;;5027211;28;20041;-81
2021/11/03 12:01:56;;;;;;;33.17;25.10;;;9.90;87.90;;;;;;5026712;28;20018;-81
2021/11/03 12:04:41;;;;;;;27.45;23.80;;;10.00;88.10;;;;;;5026892;28;20032;-81
2021/11/03 12:07:19;;;;;;;32.30;24.08;;;10.00;88.00;;;;;;5024428;28;20361;-81
2021/11/03 12:10:04;;;;;;;27.45;22.88;;;10.00;88.20;;;;;;5026510;28;20049;-81
2021/11/03 12:12:31;;;;;;;32.45;24.30;;;10.10;88.30;;;;;;5017464;28;20026;-81
2021/11/03 12:15:00;;;;;;;30.50;23.80;;;10.10;88.20;;;;;;5010050;28;20121;-81
2021/11/03 12:17:45;;;;;;;29.23;23.50;;;10.20;88.40;;;;;;5024380;28;20044;-77
2021/11/03 12:20:26;;;;;;;29.30;22.40;;;10.20;88.30;;;;;;5036955;28;20493;-78
2021/11/03 12:23:22;;;;;;;30.52;24.27;;;10.20;88.20;;;;;;5024963;28;20176;-81
2021/11/03 12:25:48;;;;;;;31.08;25.50;;;10.30;88.50;;;;;;5028900;28;20039;-81
2021/11/03 12:28:13;;;;;;;31.77;26.38;;;10.20;88.50;;;;;;5026876;28;20507;-77
2021/11/03 12:30:40;;;;;;;30.63;25.15;;;10.20;88.60;;;;;;5023600;28;20033;-76
2021/11/03 12:33:11;;;;;;;31.95;26.80;;;10.20;88.60;;;;;;5030486;28;20479;-76
2021/11/03 12:35:40;;;;;;;32.17;25.88;;;10.20;88.40;;;;;;5031204;28;20625;-81
2021/11/03 12:38:12;;;;;;;31.88;24.63;;;10.20;88.40;;;;;;5031076;28;20026;-80
2021/11/03 12:40:45;;;;;;;34.15;26.38;;;10.20;88.60;;;;;;5031932;28;20026;-79
2021/11/03 12:43:26;;;;;;;35.00;26.33;;;10.20;88.60;;;;;;5030786;28;20024;-80
2021/11/03 12:46:18;;;;;;;34.42;25.83;;;10.20;89.20;;;;;;5032629;28;20040;-80